KCMX/CMX METAR and TAF weather

Enter ICAO airport designator
Station Type Date Time Source
KCMX METAR 2020/09/21 05:53 UTC NOAA

KCMX 210553Z AUTO 21009G26KT 10SM CLR 15/07 A3021 RMK AO2 PK WND 18027/0507 SLP229 T01500067 10172 20150 53004


Station Type Date Time Source
KCMX Decoded METAR 2020/09/21 05:53 UTC NOAA

HANCOCK HOUGHTON CTY. MEMO, MI, United States (KCMX) 47-10N 088-29W 326M
Sep 21, 2020 - 01:53 AM EDT / 2020.09.21 0553 UTC
Wind: from the SSW (210 degrees) at 10 MPH (9 KT) gusting to 30 MPH (26 KT):0
Visibility: 10 mile(s):0
Sky conditions: clear
Temperature: 59.0 F (15.0 C)
Dew Point: 44.1 F (6.7 C)
Relative Humidity: 57%
Pressure (altimeter): 30.21 in. Hg (1023 hPa)
Pressure tendency: 0.01 inches (0.4 hPa) higher than three hours ago
ob: KCMX 210553Z AUTO 21009G26KT 10SM CLR 15/07 A3021 RMK AO2 PK WND 18027/0507 SLP229 T01500067 10172 20150 53004
cycle: 6

Station Type Date Time Source
KCMX TAF 2020/09/21 06:34 UTC NOAA

TAF KCMX 210532Z 2106/2206 19015G21KT P6SM FEW150
FM210800 19012KT P6SM BKN150 WS015/19045KT
FM211400 21013G21KT P6SM BKN090
FM212300 22010KT P6SM SCT090 WS015/23040KT

Example: see airport list